Jurbise, Belgium
Current Conditions -  °F | °C
As of 5:25 PM on Saturday 22 Nov 2014 (Local Time) from EBCV Reporting Station
Overcast Overcast  
Wind Chill: 54°   Ceiling: 16000
Heat Index: 54°   Visibility: 6mi
Dew Point: 48°   Wind: 3mph
Humidity: 82%   Direction: 140°SE
Pressure: 30"   Gusts: NA
Location:  50.53°N, 3.91°E
Report Text: EBCV 221625Z AUTO 14003KT 9999 OVC160/// 12/09 Q1016 BLU
Loading
Personal Weather Stations






























Interactive Weather Map New forecast layout! Learn more

10-Day Weather Forecast

Advertisements
Track Severe Weather on mobile